createdAt,value
2022-10-24T00:00:47.592Z,159.25
2022-10-24T00:03:20.804Z,182.25
2022-10-24T00:05:53.159Z,152.50
2022-10-24T00:08:25.420Z,167.50
2022-10-24T00:10:57.815Z,167.50
2022-10-24T00:13:29.867Z,158.25
2022-10-24T00:16:03.644Z,164.25
2022-10-24T00:18:36.166Z,166.25
2022-10-24T00:21:09.158Z,145.25
2022-10-24T00:23:42.148Z,163.25
2022-10-24T00:26:16.238Z,166.75
2022-10-24T00:28:49.026Z,163.25
2022-10-24T00:31:23.831Z,152.40
2022-10-24T00:33:58.154Z,155.50
2022-10-24T00:36:31.900Z,159.50
2022-10-24T00:39:04.124Z,161.00
2022-10-24T00:41:38.912Z,154.50
2022-10-24T00:44:21.318Z,154.60
2022-10-24T00:46:58.624Z,152.80
2022-10-24T00:49:35.631Z,154.20
2022-10-24T00:52:11.747Z,156.00
2022-10-24T00:54:45.745Z,135.00
2022-10-24T00:57:24.999Z,159.20
2022-10-24T01:00:01.477Z,149.40
2022-10-24T01:02:36.371Z,148.60
2022-10-24T01:05:10.572Z,133.40
2022-10-24T01:07:53.669Z,136.00
2022-10-24T01:10:41.972Z,141.60
2022-10-24T01:13:25.787Z,126.40
2022-10-24T01:16:08.306Z,149.20
2022-10-24T01:18:47.312Z,151.60
2022-10-24T01:21:28.555Z,153.80
2022-10-24T01:24:33.037Z,149.00
2022-10-24T01:27:37.776Z,132.20
2022-10-24T01:30:14.125Z,152.40
2022-10-24T01:32:55.204Z,159.75
2022-10-24T01:35:37.482Z,151.20
2022-10-24T01:38:16.140Z,149.60
2022-10-24T01:40:55.021Z,153.60
2022-10-24T01:43:31.947Z,156.00
2022-10-24T01:46:10.885Z,133.60
2022-10-24T01:48:48.767Z,136.20
2022-10-24T01:51:23.320Z,149.20
2022-10-24T01:53:56.228Z,142.20
2022-10-24T01:56:29.641Z,141.60
2022-10-24T01:59:09.867Z,145.80
2022-10-24T02:01:44.518Z,143.80
2022-10-24T02:04:17.310Z,137.20
2022-10-24T02:06:52.007Z,146.20
2022-10-24T02:09:26.001Z,150.50
2022-10-24T02:12:02.863Z,147.60
2022-10-24T02:14:39.525Z,150.20
2022-10-24T02:17:14.240Z,151.25
2022-10-24T02:19:47.850Z,149.60
2022-10-24T02:22:30.082Z,147.40
2022-10-24T02:25:07.448Z,138.60
2022-10-24T02:27:45.914Z,145.40
2022-10-24T02:30:22.233Z,132.00
2022-10-24T02:32:59.762Z,150.00
2022-10-24T02:35:35.887Z,141.60
2022-10-24T02:38:15.769Z,138.80
2022-10-24T02:40:49.859Z,135.20
2022-10-24T02:43:25.766Z,149.20
2022-10-24T02:46:00.436Z,133.20
2022-10-24T02:48:39.189Z,143.40
2022-10-24T02:51:11.499Z,132.60
2022-10-24T02:53:45.275Z,153.00
2022-10-24T02:56:18.124Z,135.80
2022-10-24T02:58:50.880Z,132.40
2022-10-24T03:01:23.015Z,137.00
2022-10-24T03:03:57.488Z,142.60
2022-10-24T03:06:29.597Z,124.00
2022-10-24T03:09:01.511Z,131.20
2022-10-24T03:11:34.430Z,128.20
2022-10-24T03:14:07.233Z,130.60
2022-10-24T03:16:39.804Z,131.00
2022-10-24T03:19:14.190Z,128.80
2022-10-24T03:22:07.289Z,124.25
2022-10-24T03:24:44.471Z,135.80
2022-10-24T03:27:27.092Z,131.00
2022-10-24T03:29:59.968Z,134.80
2022-10-24T03:32:32.692Z,136.20
2022-10-24T03:35:08.026Z,144.80
2022-10-24T03:37:43.390Z,136.80
2022-10-24T03:40:16.512Z,146.80
2022-10-24T03:42:49.547Z,132.20
2022-10-24T03:45:22.038Z,140.20
2022-10-24T03:47:54.963Z,143.00
2022-10-24T03:50:27.368Z,149.40
2022-10-24T03:53:01.134Z,159.00
2022-10-24T03:55:36.642Z,151.75
2022-10-24T03:58:08.773Z,162.50
2022-10-24T04:00:42.102Z,156.50
2022-10-24T04:03:15.353Z,166.00
2022-10-24T04:05:48.211Z,165.50
2022-10-24T04:08:22.976Z,150.00
2022-10-24T04:10:54.928Z,156.50
2022-10-24T04:13:38.290Z,170.50
2022-10-24T04:16:29.606Z,162.50
2022-10-24T04:19:02.901Z,170.75
2022-10-24T04:21:36.718Z,172.25
2022-10-24T04:24:11.655Z,177.25
2022-10-24T04:26:44.428Z,176.00
2022-10-24T04:29:30.584Z,179.75
2022-10-24T04:32:28.407Z,166.25
2022-10-24T04:35:00.587Z,165.00
2022-10-24T04:37:33.253Z,183.50
2022-10-24T04:42:57.781Z,176.25
2022-10-24T04:45:30.509Z,187.25
2022-10-24T04:48:02.994Z,177.25
2022-10-24T04:50:36.214Z,176.50
2022-10-24T04:53:16.324Z,167.00
2022-10-24T04:55:50.989Z,173.00
2022-10-24T04:58:23.452Z,186.25
2022-10-24T05:00:56.908Z,174.50
2022-10-24T05:03:41.436Z,177.50
2022-10-24T05:06:14.545Z,173.50
2022-10-24T05:08:51.670Z,179.25
2022-10-24T05:11:31.303Z,168.00
2022-10-24T05:14:05.818Z,176.75
2022-10-24T05:16:38.836Z,164.75
2022-10-24T05:19:11.225Z,176.75
2022-10-24T05:21:43.530Z,168.00
2022-10-24T05:24:16.045Z,168.50
2022-10-24T05:26:51.219Z,161.25
2022-10-24T05:29:23.266Z,170.00
2022-10-24T05:31:56.046Z,172.00
2022-10-24T05:34:28.410Z,167.00
2022-10-24T05:37:01.686Z,176.25
2022-10-24T05:39:34.797Z,170.25
2022-10-24T05:42:15.371Z,165.75
2022-10-24T05:44:48.305Z,163.75
2022-10-24T05:47:23.561Z,163.25
2022-10-24T05:49:58.359Z,172.00
2022-10-24T05:52:34.752Z,163.25
2022-10-24T05:55:11.893Z,172.00
2022-10-24T05:57:50.576Z,156.25
2022-10-24T06:00:24.002Z,164.75
2022-10-24T06:02:57.741Z,157.50
2022-10-24T06:05:34.307Z,153.00
2022-10-24T06:08:09.768Z,159.80
2022-10-24T06:10:42.102Z,157.40
2022-10-24T06:13:16.696Z,160.00
2022-10-24T06:15:50.035Z,144.60
2022-10-24T06:18:22.770Z,147.00
2022-10-24T06:20:56.273Z,133.00
2022-10-24T06:23:29.679Z,133.80
2022-10-24T06:26:02.986Z,103.20
2022-10-24T06:28:37.901Z,118.80
2022-10-24T06:31:10.842Z,121.40
2022-10-24T06:33:44.129Z,119.00
2022-10-24T06:36:20.377Z,112.20
2022-10-24T06:38:59.068Z,110.00
2022-10-24T06:41:31.686Z,111.00
2022-10-24T06:44:10.717Z,111.80
2022-10-24T06:47:12.877Z,108.80
2022-10-24T06:50:44.193Z,118.20
2022-10-24T06:56:15.680Z,115.00
2022-10-24T06:58:49.870Z,120.60
2022-10-24T07:01:27.327Z,115.60
2022-10-24T07:04:11.670Z,123.20
2022-10-24T07:06:52.186Z,120.80
2022-10-24T07:09:30.619Z,120.60
2022-10-24T07:12:07.145Z,118.40
2022-10-24T07:15:02.688Z,125.00
2022-10-24T07:17:50.585Z,131.00
2022-10-24T07:20:24.220Z,120.20
2022-10-24T07:23:06.787Z,131.40
2022-10-24T07:27:42.551Z,128.60
2022-10-24T07:31:12.417Z,119.40
2022-10-24T07:33:18.250Z,130.00
2022-10-24T07:35:57.401Z,120.40
2022-10-24T07:38:41.680Z,115.40
2022-10-24T07:41:15.225Z,115.40
2022-10-24T07:43:54.781Z,114.00
2022-10-24T07:46:37.452Z,104.80
2022-10-24T07:49:14.411Z,111.60
2022-10-24T07:52:01.414Z,109.80
2022-10-24T07:54:38.799Z,105.20
2022-10-24T07:57:34.618Z,107.40
2022-10-24T08:00:12.523Z,105.60
2022-10-24T08:05:36.300Z,94.80
2022-10-24T08:08:35.574Z,100.00
2022-10-24T08:11:28.255Z,94.80
2022-10-24T08:14:33.487Z,92.00
2022-10-24T08:18:44.666Z,88.60
2022-10-24T08:25:26.917Z,89.40
2022-10-24T08:28:52.733Z,94.00
2022-10-24T08:32:17.416Z,94.60
2022-10-24T08:35:22.285Z,89.20
2022-10-24T08:46:07.777Z,98.20
2022-10-24T08:48:49.317Z,104.60
2022-10-24T08:51:41.977Z,109.80
2022-10-24T08:54:19.585Z,110.00
2022-10-24T08:56:53.851Z,107.40
2022-10-24T08:59:26.330Z,104.20
2022-10-24T09:02:05.025Z,110.80
2022-10-24T09:04:46.196Z,104.60
2022-10-24T09:07:22.071Z,98.40
2022-10-24T09:10:00.250Z,109.20
2022-10-24T09:12:37.531Z,111.80
2022-10-24T09:17:29.390Z,105.20
2022-10-24T09:20:06.273Z,117.20
2022-10-24T09:22:42.042Z,112.00
2022-10-24T09:25:31.135Z,109.60
2022-10-24T09:28:06.800Z,102.60
2022-10-24T09:30:40.305Z,111.60
2022-10-24T09:33:28.170Z,113.80
2022-10-24T09:36:03.100Z,108.00
2022-10-24T09:38:37.180Z,102.20
2022-10-24T09:41:19.253Z,105.20
2022-10-24T09:43:56.521Z,106.60
2022-10-24T09:46:32.428Z,105.60
2022-10-24T09:49:15.486Z,104.20
2022-10-24T09:51:51.252Z,108.80
2022-10-24T09:54:34.035Z,101.00
2022-10-24T10:00:02.160Z,101.20
2022-10-24T10:02:39.080Z,100.80
2022-10-24T10:05:21.549Z,93.80
2022-10-24T10:07:55.465Z,93.60
2022-10-24T10:10:32.918Z,89.00
2022-10-24T10:13:11.181Z,93.60
2022-10-24T10:15:50.339Z,87.00
2022-10-24T10:18:33.922Z,91.80
2022-10-24T10:21:10.935Z,81.00
2022-10-24T10:23:48.127Z,92.20
2022-10-24T10:26:29.584Z,95.20
2022-10-24T10:29:04.832Z,92.40
2022-10-24T10:31:42.681Z,86.60
2022-10-24T10:34:29.172Z,90.00
2022-10-24T10:37:26.597Z,94.40
2022-10-24T10:40:26.071Z,92.80
2022-10-24T10:43:19.506Z,82.00
2022-10-24T10:46:01.331Z,74.60
2022-10-24T10:48:51.546Z,82.40
2022-10-24T10:51:36.677Z,80.00
2022-10-24T10:54:27.122Z,82.00
2022-10-24T10:57:04.596Z,86.80
2022-10-24T10:59:50.496Z,82.40
2022-10-24T11:02:50.673Z,81.00
2022-10-24T11:05:36.712Z,82.40
2022-10-24T11:08:26.468Z,84.00
2022-10-24T11:11:04.730Z,77.20
2022-10-24T11:13:42.076Z,77.80
2022-10-24T11:16:19.950Z,69.60
2022-10-24T11:18:56.308Z,74.60
2022-10-24T11:21:31.089Z,73.40
2022-10-24T11:24:13.674Z,78.20
2022-10-24T11:26:54.308Z,83.00
2022-10-24T11:29:34.840Z,67.20
2022-10-24T11:32:55.953Z,74.20
2022-10-24T11:35:34.670Z,73.20
2022-10-24T11:38:15.678Z,70.60
2022-10-24T11:40:53.631Z,77.40
2022-10-24T11:43:39.019Z,74.40
2022-10-24T11:46:18.727Z,73.60
2022-10-24T11:48:57.677Z,77.40
2022-10-24T11:51:39.312Z,76.60
2022-10-24T11:54:19.788Z,79.40
2022-10-24T11:56:56.338Z,74.80
2022-10-24T11:59:32.155Z,71.40
2022-10-24T12:02:43.312Z,76.00
2022-10-24T12:05:56.520Z,80.20
2022-10-24T12:08:49.079Z,84.00
2022-10-24T12:11:36.215Z,80.00
2022-10-24T12:14:36.820Z,69.60
2022-10-24T12:17:34.681Z,78.80
2022-10-24T12:20:08.809Z,76.60
2022-10-24T12:22:46.866Z,86.00
2022-10-24T12:25:25.901Z,83.00
2022-10-24T12:28:00.289Z,87.40
2022-10-24T12:30:36.393Z,83.00
2022-10-24T12:33:27.648Z,93.80
2022-10-24T12:36:00.711Z,84.40
2022-10-24T12:39:07.791Z,89.40
2022-10-24T12:41:45.451Z,99.60
2022-10-24T12:44:44.473Z,97.80
2022-10-24T12:47:41.717Z,98.40
2022-10-24T12:50:52.190Z,103.40
2022-10-24T12:54:03.924Z,112.20
2022-10-24T12:56:37.407Z,124.40
2022-10-24T12:59:22.979Z,118.40
2022-10-24T13:02:26.775Z,110.60
2022-10-24T13:05:15.109Z,108.20
2022-10-24T13:08:11.617Z,118.00
2022-10-24T13:11:03.143Z,118.40
2022-10-24T13:13:59.176Z,118.20
2022-10-24T13:16:43.320Z,115.00
2022-10-24T13:19:20.881Z,107.40
2022-10-24T13:21:56.366Z,108.00
2022-10-24T13:24:39.500Z,119.20
2022-10-24T13:27:35.436Z,116.00
2022-10-24T13:30:30.787Z,103.80
2022-10-24T13:33:51.199Z,112.20
2022-10-24T13:36:28.690Z,117.40
2022-10-24T13:39:04.695Z,123.00
2022-10-24T13:41:40.784Z,131.80
2022-10-24T13:44:25.039Z,134.00
2022-10-24T13:47:03.270Z,127.20
2022-10-24T13:49:39.989Z,125.80
2022-10-24T13:52:22.096Z,129.80
2022-10-24T13:55:03.280Z,127.20
2022-10-24T13:57:39.393Z,105.20
2022-10-24T14:00:22.894Z,129.00
2022-10-24T14:02:56.057Z,111.40
2022-10-24T14:05:35.758Z,118.00
2022-10-24T14:08:09.293Z,116.00
2022-10-24T14:10:43.955Z,129.20
2022-10-24T14:13:21.256Z,126.40
2022-10-24T14:15:55.634Z,142.20
2022-10-24T14:18:27.671Z,142.50
2022-10-24T14:21:02.817Z,136.80
2022-10-24T14:23:37.070Z,144.00
2022-10-24T14:26:18.944Z,141.40
2022-10-24T14:28:58.660Z,147.40
2022-10-24T14:31:36.263Z,144.00
2022-10-24T14:34:11.099Z,142.40
2022-10-24T14:36:43.778Z,135.60
2022-10-24T14:39:25.251Z,145.80
2022-10-24T14:42:00.754Z,148.00
2022-10-24T14:44:37.400Z,121.75
2022-10-24T14:47:22.294Z,155.50
2022-10-24T14:49:54.406Z,153.25
2022-10-24T14:52:33.677Z,156.75
2022-10-24T14:55:09.487Z,155.75
2022-10-24T14:57:43.628Z,153.00
2022-10-24T15:00:25.583Z,183.25
2022-10-24T15:03:00.692Z,189.00
2022-10-24T15:05:36.957Z,207.75
2022-10-24T15:08:31.693Z,207.50
2022-10-24T15:11:19.226Z,217.75
2022-10-24T15:14:06.395Z,219.00
2022-10-24T15:16:43.517Z,196.75
2022-10-24T15:19:21.030Z,216.25
2022-10-24T15:21:53.178Z,206.25
2022-10-24T15:24:29.103Z,221.25
2022-10-24T15:27:14.175Z,220.00
2022-10-24T15:29:48.032Z,236.50
2022-10-24T15:32:20.047Z,237.75
2022-10-24T15:34:52.571Z,239.75
2022-10-24T15:37:26.577Z,258.00
2022-10-24T15:39:59.024Z,256.00
2022-10-24T15:42:30.981Z,256.75
2022-10-24T15:45:05.751Z,273.67
2022-10-24T15:47:37.900Z,284.67
2022-10-24T15:50:11.884Z,291.75
2022-10-24T15:52:44.525Z,288.50
2022-10-24T15:55:22.077Z,292.00
2022-10-24T15:57:55.170Z,284.67
2022-10-24T16:00:29.271Z,306.00
2022-10-24T16:03:06.024Z,302.00
2022-10-24T16:05:41.947Z,298.75
2022-10-24T16:08:16.873Z,306.80
2022-10-24T16:10:49.780Z,294.00
2022-10-24T16:13:22.974Z,298.00
2022-10-24T16:15:58.147Z,311.60
2022-10-24T16:18:31.732Z,303.40
2022-10-24T16:21:03.996Z,289.00
2022-10-24T16:23:37.115Z,337.00
2022-10-24T16:26:10.188Z,344.00
2022-10-24T16:28:42.331Z,312.75
2022-10-24T16:31:24.899Z,332.00
2022-10-24T16:33:57.307Z,422.60
2022-10-24T16:36:30.394Z,357.20
2022-10-24T16:39:02.803Z,322.60
2022-10-24T16:41:35.433Z,302.00
2022-10-24T16:44:07.952Z,304.80
2022-10-24T16:46:42.139Z,311.00
2022-10-24T16:49:15.000Z,305.75
2022-10-24T16:51:48.469Z,300.75
2022-10-24T16:54:22.110Z,296.33
2022-10-24T16:56:54.672Z,303.67
2022-10-24T16:59:27.840Z,279.00
2022-10-24T17:02:01.957Z,298.00
2022-10-24T17:04:34.834Z,295.67
2022-10-24T17:07:07.274Z,279.33
2022-10-24T17:09:40.327Z,275.67
2022-10-24T17:12:12.759Z,274.33
2022-10-24T17:14:45.677Z,301.33
2022-10-24T17:17:19.815Z,290.00
2022-10-24T17:19:52.649Z,281.33
2022-10-24T17:22:25.814Z,296.67
2022-10-24T17:24:59.773Z,282.00
2022-10-24T17:27:32.766Z,291.33
2022-10-24T17:30:05.249Z,311.67
2022-10-24T17:32:39.171Z,291.33
2022-10-24T17:35:15.854Z,302.33
2022-10-24T17:37:58.452Z,289.67
2022-10-24T17:40:34.829Z,302.33
2022-10-24T17:43:07.878Z,285.67
2022-10-24T17:45:40.908Z,280.50
2022-10-24T17:48:15.574Z,264.00
2022-10-24T17:50:48.781Z,273.00
2022-10-24T17:53:21.988Z,258.00
2022-10-24T17:55:54.384Z,244.00
2022-10-24T17:58:26.828Z,253.75
2022-10-24T18:00:59.185Z,275.50
2022-10-24T18:03:32.897Z,275.00
2022-10-24T18:06:08.124Z,271.25
2022-10-24T18:08:40.238Z,266.00
2022-10-24T18:11:14.346Z,261.25
2022-10-24T18:13:46.772Z,263.75
2022-10-24T18:16:22.007Z,252.25
2022-10-24T18:18:56.522Z,249.00
2022-10-24T18:21:30.089Z,238.00
2022-10-24T18:24:02.848Z,226.75
2022-10-24T18:26:35.475Z,221.75
2022-10-24T18:29:08.274Z,219.25
2022-10-24T18:31:40.863Z,218.50
2022-10-24T18:34:14.506Z,226.25
2022-10-24T18:36:46.541Z,232.00
2022-10-24T18:39:18.757Z,209.75
2022-10-24T18:41:52.975Z,223.00
2022-10-24T18:44:28.854Z,214.25
2022-10-24T18:47:03.389Z,220.75
2022-10-24T18:49:38.547Z,201.00
2022-10-24T18:52:20.678Z,217.75
2022-10-24T18:55:05.457Z,197.75
2022-10-24T18:57:38.286Z,191.00
2022-10-24T19:00:16.054Z,185.75
2022-10-24T19:02:59.788Z,185.00
2022-10-24T19:05:47.005Z,171.25
2022-10-24T19:08:23.963Z,162.50
2022-10-24T19:10:57.735Z,175.00
2022-10-24T19:13:31.098Z,159.00
2022-10-24T19:16:05.534Z,152.25
2022-10-24T19:18:40.054Z,159.00
2022-10-24T19:21:13.713Z,162.75
2022-10-24T19:23:46.502Z,152.50
2022-10-24T19:26:18.637Z,160.25
2022-10-24T19:28:51.210Z,148.00
2022-10-24T19:31:23.000Z,153.50
2022-10-24T19:33:57.655Z,155.00
2022-10-24T19:36:32.486Z,148.75
2022-10-24T19:39:05.048Z,148.20
2022-10-24T19:41:37.174Z,139.60
2022-10-24T19:44:09.614Z,147.00
2022-10-24T19:46:42.422Z,150.50
2022-10-24T19:49:15.053Z,159.50
2022-10-24T19:51:48.859Z,159.25
2022-10-24T19:54:21.647Z,146.25
2022-10-24T19:56:56.175Z,153.00
2022-10-24T19:59:33.291Z,166.00
2022-10-24T20:02:05.920Z,152.25
2022-10-24T20:04:41.942Z,170.75
2022-10-24T20:07:18.839Z,160.75
2022-10-24T20:09:51.862Z,160.25
2022-10-24T20:12:24.890Z,158.25
2022-10-24T20:14:56.826Z,152.00
2022-10-24T20:17:30.020Z,142.80
2022-10-24T20:20:01.990Z,141.40
2022-10-24T20:22:36.087Z,148.40
2022-10-24T20:25:08.592Z,142.80
2022-10-24T20:27:42.060Z,144.80
2022-10-24T20:30:15.675Z,135.40
2022-10-24T20:32:47.667Z,140.20
2022-10-24T20:35:19.651Z,135.40
2022-10-24T20:37:53.197Z,127.40
2022-10-24T20:40:25.603Z,129.40
2022-10-24T20:42:57.616Z,126.60
2022-10-24T20:45:29.577Z,145.40
2022-10-24T20:48:01.635Z,138.80
2022-10-24T20:50:34.318Z,127.80
2022-10-24T20:53:08.966Z,124.80
2022-10-24T20:55:45.143Z,124.40
2022-10-24T20:58:17.506Z,113.20
2022-10-24T21:00:49.480Z,123.60
2022-10-24T21:03:21.694Z,121.00
2022-10-24T21:05:54.146Z,119.40
2022-10-24T21:08:27.918Z,119.00
2022-10-24T21:11:00.255Z,116.00
2022-10-24T21:13:32.500Z,114.80
2022-10-24T21:16:04.592Z,124.40
2022-10-24T21:18:37.406Z,111.80
2022-10-24T21:21:14.203Z,114.80
2022-10-24T21:23:48.726Z,116.80
2022-10-24T21:26:20.676Z,122.80
2022-10-24T21:28:59.535Z,110.60
2022-10-24T21:31:47.065Z,125.40
2022-10-24T21:34:19.193Z,116.00
2022-10-24T21:36:51.824Z,115.00
2022-10-24T21:39:25.322Z,117.40
2022-10-24T21:41:57.161Z,115.40
2022-10-24T21:44:29.673Z,114.80
2022-10-24T21:47:02.117Z,105.40
2022-10-24T21:49:34.450Z,118.60
2022-10-24T21:52:06.465Z,111.40
2022-10-24T21:54:40.533Z,117.40
2022-10-24T21:57:13.092Z,118.80
2022-10-24T21:59:46.320Z,114.00
2022-10-24T22:02:18.373Z,112.80
2022-10-24T22:04:53.806Z,108.20
2022-10-24T22:10:07.031Z,116.20
2022-10-24T22:12:39.452Z,113.60
2022-10-24T22:15:12.700Z,112.40
2022-10-24T22:17:46.048Z,100.80
2022-10-24T22:20:19.190Z,112.80
2022-10-24T22:22:51.861Z,112.20
2022-10-24T22:25:25.444Z,105.60
2022-10-24T22:27:58.085Z,107.60
2022-10-24T22:30:30.585Z,110.00
2022-10-24T22:33:02.963Z,109.40
2022-10-24T22:35:37.737Z,116.20
2022-10-24T22:38:10.184Z,111.00
2022-10-24T22:40:45.225Z,114.40
2022-10-24T22:43:17.737Z,106.60
2022-10-24T22:46:01.672Z,113.40
2022-10-24T22:48:39.460Z,97.20
2022-10-24T22:51:13.183Z,115.40
2022-10-24T22:53:47.486Z,110.40
2022-10-24T22:56:28.404Z,103.20
2022-10-24T22:59:00.791Z,97.20
2022-10-24T23:01:45.942Z,107.80
2022-10-24T23:04:28.042Z,113.40
2022-10-24T23:07:06.115Z,107.60
2022-10-24T23:09:38.639Z,104.00
2022-10-24T23:12:17.856Z,109.20
2022-10-24T23:14:51.249Z,101.80
2022-10-24T23:17:27.040Z,105.40
2022-10-24T23:20:00.046Z,99.00
2022-10-24T23:22:33.482Z,98.80
2022-10-24T23:25:06.338Z,105.60
2022-10-24T23:27:42.798Z,104.20
2022-10-24T23:30:20.651Z,97.20
2022-10-24T23:32:54.655Z,99.80
2022-10-24T23:35:27.631Z,112.80
2022-10-24T23:38:01.012Z,105.20
2022-10-24T23:40:37.126Z,101.40
2022-10-24T23:43:17.622Z,98.60
2022-10-24T23:45:59.127Z,110.60
2022-10-24T23:48:47.501Z,105.00
2022-10-24T23:51:26.462Z,116.20
